createdAt,value
2017-06-13T00:00:08.005Z,18.41
2017-06-13T00:00:48.578Z,18.45
2017-06-13T00:01:29.164Z,18.44
2017-06-13T00:02:09.744Z,18.43
2017-06-13T00:02:50.347Z,18.49
2017-06-13T00:03:30.940Z,18.45
2017-06-13T00:04:11.536Z,18.47
2017-06-13T00:04:52.141Z,18.52
2017-06-13T00:05:32.716Z,18.41
2017-06-13T00:06:13.298Z,18.41
2017-06-13T00:06:53.893Z,18.4
2017-06-13T00:07:34.490Z,18.41
2017-06-13T00:08:15.066Z,18.4
2017-06-13T00:08:55.727Z,18.47
2017-06-13T00:09:36.328Z,18.45
2017-06-13T00:10:16.914Z,18.41
2017-06-13T00:10:57.530Z,18.4
2017-06-13T00:11:38.123Z,18.4
2017-06-13T00:12:18.724Z,18.43
2017-06-13T00:12:59.305Z,18.43
2017-06-13T00:13:39.900Z,18.44
2017-06-13T00:14:20.480Z,18.43
2017-06-13T00:15:01.061Z,18.45
2017-06-13T00:15:41.675Z,18.45
2017-06-13T00:16:22.280Z,18.43
2017-06-13T00:17:02.881Z,18.41
2017-06-13T00:17:43.476Z,18.44
2017-06-13T00:18:24.078Z,18.26
2017-06-13T00:19:04.656Z,18.34
2017-06-13T00:19:45.245Z,18.31
2017-06-13T00:20:25.839Z,18.35
2017-06-13T00:21:06.450Z,18.34
2017-06-13T00:21:47.047Z,18.26
2017-06-13T00:22:27.644Z,18.28
2017-06-13T00:23:08.241Z,18.29
2017-06-13T00:23:48.817Z,18.28
2017-06-13T00:24:35.973Z,18.38
2017-06-13T00:25:16.557Z,18.29
2017-06-13T00:25:57.164Z,18.28
2017-06-13T00:26:37.719Z,18.34
2017-06-13T00:27:18.317Z,18.29
2017-06-13T00:27:58.904Z,18.19
2017-06-13T00:28:39.522Z,18.23
2017-06-13T00:29:20.128Z,18.26
2017-06-13T00:30:00.702Z,18.28
2017-06-13T00:30:41.300Z,18.13
2017-06-13T00:31:21.901Z,18.19
2017-06-13T00:32:02.492Z,18.13
2017-06-13T00:32:43.067Z,18.25
2017-06-13T00:33:23.655Z,18.22
2017-06-13T00:34:04.341Z,18.2
2017-06-13T00:34:45.150Z,18.19
2017-06-13T00:35:25.760Z,18.28
2017-06-13T00:36:06.346Z,18.15
2017-06-13T00:36:46.952Z,18.29
2017-06-13T00:37:27.549Z,18.23
2017-06-13T00:38:08.131Z,18.28
2017-06-13T00:38:48.751Z,18.26
2017-06-13T00:39:29.348Z,18.25
2017-06-13T00:40:10.007Z,18.23
2017-06-13T00:40:50.601Z,18.29
2017-06-13T00:41:31.199Z,18.26
2017-06-13T00:42:11.774Z,18.22
2017-06-13T00:42:52.353Z,18.19
2017-06-13T00:43:32.975Z,18.2
2017-06-13T00:44:13.594Z,18.15
2017-06-13T00:44:54.196Z,18.18
2017-06-13T00:45:34.799Z,18.13
2017-06-13T00:46:15.406Z,18.13
2017-06-13T00:46:56.024Z,18.16
2017-06-13T00:47:36.646Z,18.19
2017-06-13T00:48:17.243Z,18.16
2017-06-13T00:48:57.861Z,18.2
2017-06-13T00:49:38.489Z,18.19
2017-06-13T00:50:19.153Z,18.2
2017-06-13T00:50:59.771Z,18.13
2017-06-13T00:51:40.380Z,18.11
2017-06-13T00:52:20.978Z,18.15
2017-06-13T00:53:01.602Z,18.16
2017-06-13T00:53:42.210Z,18.08
2017-06-13T00:54:22.818Z,18.16
2017-06-13T00:55:03.475Z,18.28
2017-06-13T00:55:44.082Z,18.31
2017-06-13T00:56:24.675Z,18.16
2017-06-13T00:57:05.296Z,18.26
2017-06-13T00:57:45.916Z,18.28
2017-06-13T00:58:26.523Z,18.26
2017-06-13T00:59:07.186Z,18.23
2017-06-13T00:59:47.791Z,18.2
2017-06-13T01:00:28.408Z,18.19
2017-06-13T01:01:09.035Z,18.19
2017-06-13T01:01:49.631Z,18.1
2017-06-13T01:02:30.238Z,18.22
2017-06-13T01:03:10.858Z,18.18
2017-06-13T01:03:51.539Z,18.19
2017-06-13T01:04:32.152Z,18.18
2017-06-13T01:05:12.757Z,18.1
2017-06-13T01:05:53.350Z,18.08
2017-06-13T01:06:33.925Z,18.1
2017-06-13T01:07:14.522Z,18.13
2017-06-13T01:07:55.154Z,18.2
2017-06-13T01:08:35.889Z,18.2
2017-06-13T01:09:16.563Z,18.15
2017-06-13T01:09:57.200Z,18.18
2017-06-13T01:10:37.799Z,18.2
2017-06-13T01:11:18.416Z,18.19
2017-06-13T01:11:59.015Z,18.16
2017-06-13T01:12:39.601Z,18.16
2017-06-13T01:13:20.192Z,18.2
2017-06-13T01:14:00.851Z,18.23
2017-06-13T01:14:41.466Z,18.2
2017-06-13T01:15:22.055Z,18.22
2017-06-13T01:16:02.640Z,18.19
2017-06-13T01:16:43.232Z,18.19
2017-06-13T01:17:23.841Z,18.13
2017-06-13T01:18:04.459Z,18.19
2017-06-13T01:18:45.099Z,18.18
2017-06-13T01:19:25.761Z,18.2
2017-06-13T01:20:06.364Z,18.15
2017-06-13T01:20:46.976Z,18.22
2017-06-13T01:21:27.588Z,18.16
2017-06-13T01:22:08.239Z,18.13
2017-06-13T01:22:48.843Z,18.19
2017-06-13T01:23:29.446Z,18.19
2017-06-13T01:24:10.051Z,18.26
2017-06-13T01:24:50.652Z,18.16
2017-06-13T01:25:31.257Z,18.2
2017-06-13T01:26:11.867Z,18.25
2017-06-13T01:26:52.544Z,18.28
2017-06-13T01:27:33.143Z,18.19
2017-06-13T01:28:13.796Z,18.23
2017-06-13T01:28:54.467Z,18.28
2017-06-13T01:29:35.166Z,18.25
2017-06-13T01:30:15.800Z,18.28
2017-06-13T01:30:56.429Z,18.23
2017-06-13T01:31:37.142Z,18.28
2017-06-13T01:32:17.730Z,18.16
2017-06-13T01:32:58.346Z,18.26
2017-06-13T01:33:38.981Z,18.18
2017-06-13T01:34:19.585Z,18.15
2017-06-13T01:35:00.189Z,18.13
2017-06-13T01:35:40.797Z,18.15
2017-06-13T01:36:21.400Z,18.2
2017-06-13T01:37:02.013Z,18.13
2017-06-13T01:37:42.635Z,18.2
2017-06-13T01:38:23.268Z,18.18
2017-06-13T01:39:03.863Z,18.18
2017-06-13T01:39:44.462Z,18.16
2017-06-13T01:40:25.068Z,18.16
2017-06-13T01:41:05.659Z,18.18
2017-06-13T01:41:46.268Z,18.19
2017-06-13T01:42:26.854Z,18.18
2017-06-13T01:43:07.499Z,18.23
2017-06-13T01:43:48.104Z,18.23
2017-06-13T01:44:28.699Z,18.2
2017-06-13T01:45:09.294Z,18.15
2017-06-13T01:45:49.895Z,18.22
2017-06-13T01:46:30.492Z,18.23
2017-06-13T01:47:11.077Z,18.2
2017-06-13T01:47:51.666Z,18.23
2017-06-13T01:48:32.249Z,18.16
2017-06-13T01:49:12.863Z,18.16
2017-06-13T01:49:53.466Z,18.13
2017-06-13T01:50:34.069Z,18.13
2017-06-13T01:51:14.668Z,18.2
2017-06-13T01:51:55.258Z,18.15
2017-06-13T01:52:35.836Z,18.16
2017-06-13T01:53:16.420Z,18.13
2017-06-13T01:53:56.997Z,18.25
2017-06-13T01:54:37.604Z,18.16
2017-06-13T01:55:18.199Z,18.2
2017-06-13T01:55:58.797Z,18.2
2017-06-13T01:56:39.391Z,18.19
2017-06-13T01:57:19.977Z,18.23
2017-06-13T01:58:00.603Z,18.16
2017-06-13T01:58:41.184Z,18.23
2017-06-13T01:59:21.769Z,18.07
2017-06-13T02:00:02.389Z,18.2
2017-06-13T02:00:43.065Z,18.19
2017-06-13T02:01:23.737Z,18.25
2017-06-13T02:02:04.362Z,18.1
2017-06-13T02:02:44.939Z,18.19
2017-06-13T02:03:25.644Z,18.07
2017-06-13T02:04:06.204Z,18.11
2017-06-13T02:04:46.784Z,18.22
2017-06-13T02:05:27.375Z,18.2
2017-06-13T02:06:07.952Z,18.16
2017-06-13T02:06:48.532Z,18.19
2017-06-13T02:07:29.159Z,18.2
2017-06-13T02:08:09.751Z,18.18
2017-06-13T02:08:50.337Z,18.22
2017-06-13T02:09:30.927Z,18.19
2017-06-13T02:10:11.505Z,18.19
2017-06-13T02:10:52.118Z,18.15
2017-06-13T02:11:32.690Z,18.18
2017-06-13T02:12:13.287Z,18.08
2017-06-13T02:12:53.868Z,18.1
2017-06-13T02:13:34.452Z,18.08
2017-06-13T02:14:15.053Z,18
2017-06-13T02:14:55.637Z,18.07
2017-06-13T02:15:36.217Z,18.07
2017-06-13T02:16:16.812Z,17.98
2017-06-13T02:16:57.400Z,18.03
2017-06-13T02:17:37.980Z,18.03
2017-06-13T02:18:18.567Z,18.1
2017-06-13T02:18:59.157Z,18.07
2017-06-13T02:19:39.741Z,18.03
2017-06-13T02:20:20.342Z,18.05
2017-06-13T02:21:00.933Z,18.05
2017-06-13T02:21:41.543Z,18
2017-06-13T02:22:22.120Z,18.08
2017-06-13T02:23:02.690Z,18.04
2017-06-13T02:23:43.273Z,18.04
2017-06-13T02:24:23.855Z,18.05
2017-06-13T02:25:04.467Z,18.07
2017-06-13T02:25:45.046Z,18.04
2017-06-13T02:26:25.635Z,18.01
2017-06-13T02:27:06.229Z,18.18
2017-06-13T02:27:46.836Z,18.08
2017-06-13T02:28:27.431Z,18.07
2017-06-13T02:29:08.022Z,18.11
2017-06-13T02:29:48.626Z,18.08
2017-06-13T02:30:29.242Z,18.08
2017-06-13T02:31:09.809Z,18.15
2017-06-13T02:31:50.424Z,18.05
2017-06-13T02:32:30.998Z,18.18
2017-06-13T02:33:11.605Z,18.07
2017-06-13T02:33:52.205Z,18.1
2017-06-13T02:34:32.833Z,18.13
2017-06-13T02:35:13.418Z,18.08
2017-06-13T02:35:54.019Z,18.11
2017-06-13T02:36:34.599Z,18.13
2017-06-13T02:37:15.187Z,18.05
2017-06-13T02:37:55.788Z,18.08
2017-06-13T02:38:36.378Z,18.04
2017-06-13T02:39:16.986Z,18.05
2017-06-13T02:39:57.563Z,18.05
2017-06-13T02:40:38.152Z,18
2017-06-13T02:41:18.729Z,18.1
2017-06-13T02:41:59.307Z,18.08
2017-06-13T02:42:39.887Z,18.04
2017-06-13T02:43:20.470Z,18.07
2017-06-13T02:44:01.074Z,18.03
2017-06-13T02:44:41.645Z,18.05
2017-06-13T02:45:22.224Z,18.04
2017-06-13T02:46:02.812Z,18.07
2017-06-13T02:46:43.429Z,18.04
2017-06-13T02:47:24.125Z,18.04
2017-06-13T02:48:04.709Z,18.04
2017-06-13T02:48:45.327Z,18.05
2017-06-13T02:49:25.907Z,18.01
2017-06-13T02:50:06.494Z,18.03
2017-06-13T02:50:47.085Z,18.03
2017-06-13T02:51:27.698Z,18.05
2017-06-13T02:52:08.285Z,18.03
2017-06-13T02:52:48.875Z,18
2017-06-13T02:53:29.462Z,17.98
2017-06-13T02:54:10.039Z,17.98
2017-06-13T02:54:50.630Z,17.95
2017-06-13T02:55:31.225Z,17.95
2017-06-13T02:56:11.818Z,17.98
2017-06-13T02:56:52.408Z,17.92
2017-06-13T02:57:33.005Z,17.92
2017-06-13T02:58:13.602Z,17.92
2017-06-13T02:58:54.206Z,17.95
2017-06-13T02:59:34.818Z,17.94
2017-06-13T03:00:15.414Z,17.95
2017-06-13T03:00:56.083Z,17.92
2017-06-13T03:01:36.690Z,17.9
2017-06-13T03:02:17.286Z,17.94
2017-06-13T03:02:57.878Z,17.89
2017-06-13T03:03:38.459Z,17.97
2017-06-13T03:04:19.060Z,17.9
2017-06-13T03:04:59.674Z,17.9
2017-06-13T03:05:40.296Z,17.89
2017-06-13T03:06:20.840Z,17.89
2017-06-13T03:07:01.433Z,17.85
2017-06-13T03:07:42.013Z,17.92
2017-06-13T03:08:22.606Z,17.85
2017-06-13T03:09:03.194Z,17.86
2017-06-13T03:09:43.779Z,17.94
2017-06-13T03:10:24.385Z,17.9
2017-06-13T03:11:04.993Z,17.87
2017-06-13T03:11:45.601Z,17.9
2017-06-13T03:12:26.207Z,17.9
2017-06-13T03:13:06.798Z,17.9
2017-06-13T03:13:47.388Z,17.89
2017-06-13T03:14:27.978Z,17.85
2017-06-13T03:15:08.601Z,17.94
2017-06-13T03:15:49.207Z,17.86
2017-06-13T03:16:29.802Z,17.92
2017-06-13T03:17:10.383Z,17.92
2017-06-13T03:17:50.978Z,17.87
2017-06-13T03:18:31.580Z,17.86
2017-06-13T03:19:12.161Z,17.89
2017-06-13T03:19:52.760Z,17.87
2017-06-13T03:20:33.350Z,17.86
2017-06-13T03:21:13.963Z,17.86
2017-06-13T03:21:54.550Z,17.83
2017-06-13T03:22:35.151Z,17.9
2017-06-13T03:23:15.783Z,17.82
2017-06-13T03:23:56.372Z,17.85
2017-06-13T03:24:36.989Z,17.98
2017-06-13T03:25:17.638Z,17.9
2017-06-13T03:25:58.247Z,17.85
2017-06-13T03:26:38.849Z,17.87
2017-06-13T03:27:19.442Z,17.86
2017-06-13T03:28:00.014Z,17.89
2017-06-13T03:28:40.621Z,17.85
2017-06-13T03:29:21.203Z,17.89
2017-06-13T03:30:01.783Z,17.95
2017-06-13T03:30:42.393Z,17.83
2017-06-13T03:31:22.976Z,17.9
2017-06-13T03:32:03.573Z,17.86
2017-06-13T03:32:44.184Z,17.82
2017-06-13T03:33:24.791Z,17.94
2017-06-13T03:34:05.348Z,17.89
2017-06-13T03:34:45.929Z,17.85
2017-06-13T03:35:26.523Z,17.9
2017-06-13T03:36:07.127Z,17.87
2017-06-13T03:36:47.719Z,17.86
2017-06-13T03:37:28.312Z,17.9
2017-06-13T03:38:08.890Z,17.82
2017-06-13T03:38:49.472Z,17.83
2017-06-13T03:39:30.073Z,17.86
2017-06-13T03:40:10.659Z,17.83
2017-06-13T03:40:51.248Z,17.86
2017-06-13T03:41:31.918Z,17.83
2017-06-13T03:42:12.504Z,17.82
2017-06-13T03:42:53.095Z,17.89
2017-06-13T03:43:33.675Z,17.82
2017-06-13T03:44:14.269Z,17.83
2017-06-13T03:44:54.886Z,17.76
2017-06-13T03:45:35.483Z,17.78
2017-06-13T03:46:16.067Z,17.71
2017-06-13T03:46:56.652Z,17.74
2017-06-13T03:47:37.254Z,17.74
2017-06-13T03:48:17.817Z,17.71
2017-06-13T03:48:58.403Z,17.72
2017-06-13T03:49:38.987Z,17.7
2017-06-13T03:50:19.586Z,17.78
2017-06-13T03:51:00.179Z,17.74
2017-06-13T03:51:40.779Z,17.79
2017-06-13T03:52:21.362Z,17.65
2017-06-13T03:53:01.943Z,17.78
2017-06-13T03:53:42.528Z,17.78
2017-06-13T03:54:23.133Z,17.78
2017-06-13T03:55:03.683Z,17.72
2017-06-13T03:55:44.273Z,17.78
2017-06-13T03:56:24.865Z,17.76
2017-06-13T03:57:05.451Z,17.74
2017-06-13T03:57:46.049Z,17.76
2017-06-13T03:58:26.645Z,17.76
2017-06-13T03:59:07.229Z,17.76
2017-06-13T03:59:47.902Z,17.78
2017-06-13T04:00:28.493Z,17.71
2017-06-13T04:01:09.088Z,17.76
2017-06-13T04:01:49.668Z,17.9
2017-06-13T04:02:30.242Z,17.83
2017-06-13T04:03:10.836Z,17.83
2017-06-13T04:03:51.448Z,17.87
2017-06-13T04:04:32.017Z,17.87
2017-06-13T04:05:12.594Z,17.86
2017-06-13T04:05:53.203Z,17.85
2017-06-13T04:06:33.792Z,17.76
2017-06-13T04:07:14.388Z,17.72
2017-06-13T04:07:55.000Z,17.89
2017-06-13T04:08:35.593Z,17.72
2017-06-13T04:09:16.177Z,17.68
2017-06-13T04:09:56.757Z,17.72
2017-06-13T04:10:37.347Z,17.85
2017-06-13T04:11:17.941Z,17.74
2017-06-13T04:11:58.508Z,17.76
2017-06-13T04:12:39.097Z,17.8
2017-06-13T04:13:19.689Z,17.87
2017-06-13T04:14:00.431Z,17.8
2017-06-13T04:14:41.011Z,17.87
2017-06-13T04:15:21.691Z,17.82
2017-06-13T04:16:02.271Z,17.82
2017-06-13T04:16:42.926Z,17.89
2017-06-13T04:17:23.610Z,17.86
2017-06-13T04:18:04.270Z,17.89
2017-06-13T04:18:45.246Z,17.78
2017-06-13T04:19:26.014Z,17.78
2017-06-13T04:20:06.585Z,17.89
2017-06-13T04:20:47.158Z,17.76
2017-06-13T04:21:27.751Z,17.8
2017-06-13T04:22:08.354Z,17.9
2017-06-13T04:22:49.067Z,17.87
2017-06-13T04:23:29.640Z,17.82
2017-06-13T04:24:10.232Z,17.89
2017-06-13T04:24:50.833Z,17.9
2017-06-13T04:25:31.416Z,17.92
2017-06-13T04:26:12.019Z,17.83
2017-06-13T04:26:52.604Z,17.9
2017-06-13T04:27:33.265Z,17.87
2017-06-13T04:28:13.844Z,17.79
2017-06-13T04:28:54.413Z,17.85
2017-06-13T04:29:34.999Z,17.82
2017-06-13T04:30:15.657Z,17.86
2017-06-13T04:30:56.236Z,17.92
2017-06-13T04:31:36.842Z,17.87
2017-06-13T04:32:17.432Z,17.85
2017-06-13T04:32:58.020Z,17.87
2017-06-13T04:33:38.595Z,17.76
2017-06-13T04:34:19.195Z,17.79
2017-06-13T04:34:59.776Z,17.74
2017-06-13T04:35:40.361Z,17.78
2017-06-13T04:36:20.948Z,17.83
2017-06-13T04:37:01.551Z,17.76
2017-06-13T04:37:42.125Z,17.79
2017-06-13T04:38:22.699Z,17.87
2017-06-13T04:39:03.291Z,17.83
2017-06-13T04:39:43.874Z,17.85
2017-06-13T04:40:24.476Z,17.89
2017-06-13T04:41:05.073Z,17.86
2017-06-13T04:41:45.743Z,17.8
2017-06-13T04:42:26.299Z,17.85
2017-06-13T04:43:06.899Z,17.76
2017-06-13T04:43:47.498Z,17.82
2017-06-13T04:44:28.077Z,17.95
2017-06-13T04:45:08.658Z,17.94
2017-06-13T04:45:49.237Z,17.89
2017-06-13T04:46:29.818Z,17.9
2017-06-13T04:47:10.440Z,17.85
2017-06-13T04:47:51.021Z,17.87
2017-06-13T04:48:31.621Z,17.92
2017-06-13T04:49:12.234Z,17.89
2017-06-13T04:49:52.817Z,17.86
2017-06-13T04:50:33.424Z,17.89
2017-06-13T04:51:14.050Z,17.94
2017-06-13T04:51:54.645Z,17.98
2017-06-13T04:52:35.239Z,17.94
2017-06-13T04:53:15.810Z,17.87
2017-06-13T04:53:56.390Z,17.94
2017-06-13T04:54:36.986Z,17.98
2017-06-13T04:55:17.582Z,17.98
2017-06-13T04:55:58.170Z,18.01
2017-06-13T04:56:38.785Z,17.98
2017-06-13T04:57:19.401Z,17.98
2017-06-13T04:58:00.074Z,18.01
2017-06-13T04:58:40.657Z,18.01
2017-06-13T04:59:21.280Z,18.08
2017-06-13T05:00:01.943Z,18.08
2017-06-13T05:00:42.517Z,18.05
2017-06-13T05:01:23.144Z,18.13
2017-06-13T05:02:03.784Z,18.08
2017-06-13T05:02:44.347Z,18.11
2017-06-13T05:03:24.939Z,18.16
2017-06-13T05:04:05.549Z,18.16
2017-06-13T05:04:46.133Z,18.18
2017-06-13T05:05:26.739Z,18.23
2017-06-13T05:06:07.308Z,18.13
2017-06-13T05:06:47.918Z,18.13
2017-06-13T05:07:28.496Z,18.16
2017-06-13T05:08:09.097Z,18.34
2017-06-13T05:08:49.684Z,18.26
2017-06-13T05:09:30.294Z,18.34
2017-06-13T05:10:10.902Z,18.29
2017-06-13T05:10:51.502Z,18.26
2017-06-13T05:11:32.089Z,18.23
2017-06-13T05:12:12.689Z,18.35
2017-06-13T05:12:53.257Z,18.34
2017-06-13T05:13:33.850Z,18.34
2017-06-13T05:14:14.450Z,18.37
2017-06-13T05:14:55.047Z,18.4
2017-06-13T05:15:35.660Z,18.43
2017-06-13T05:16:16.250Z,18.37
2017-06-13T05:16:56.838Z,18.5
2017-06-13T05:17:37.412Z,18.37
2017-06-13T05:18:18.030Z,18.45
2017-06-13T05:18:58.610Z,18.44
2017-06-13T05:19:39.250Z,18.4
2017-06-13T05:20:19.859Z,18.52
2017-06-13T05:21:00.596Z,18.5
2017-06-13T05:21:41.178Z,18.58
2017-06-13T05:22:21.764Z,18.71
2017-06-13T05:23:02.335Z,18.78
2017-06-13T05:23:42.946Z,18.8
2017-06-13T05:24:23.552Z,18.8
2017-06-13T05:25:04.226Z,18.75
2017-06-13T05:25:44.807Z,18.84
2017-06-13T05:26:25.400Z,18.92
2017-06-13T05:27:05.998Z,18.92
2017-06-13T05:27:46.579Z,18.95
2017-06-13T05:28:27.169Z,18.89
2017-06-13T05:29:07.753Z,18.89
2017-06-13T05:29:48.402Z,18.99
2017-06-13T05:30:28.989Z,18.89
2017-06-13T05:31:09.626Z,18.92
2017-06-13T05:31:50.297Z,18.9
2017-06-13T05:32:30.962Z,18.9
2017-06-13T05:33:11.535Z,18.96
2017-06-13T05:33:52.204Z,18.99
2017-06-13T05:34:32.818Z,18.92
2017-06-13T05:35:13.376Z,18.99
2017-06-13T05:35:53.992Z,18.99
2017-06-13T05:36:34.576Z,19.07
2017-06-13T05:37:15.206Z,19.07
2017-06-13T05:37:55.784Z,19.15
2017-06-13T05:38:36.373Z,19.11
2017-06-13T05:39:16.954Z,19.16
2017-06-13T05:39:57.542Z,19.12
2017-06-13T05:40:38.164Z,19.09
2017-06-13T05:41:18.756Z,19.12
2017-06-13T05:41:59.368Z,19
2017-06-13T05:42:40.028Z,19.04
2017-06-13T05:43:20.674Z,19.11
2017-06-13T05:44:01.282Z,19.07
2017-06-13T05:44:41.866Z,19.16
2017-06-13T05:45:22.479Z,19.18
2017-06-13T05:46:03.058Z,19.14
2017-06-13T05:46:43.806Z,19.21
2017-06-13T05:47:24.470Z,19.26
2017-06-13T05:48:05.076Z,19.22
2017-06-13T05:48:45.669Z,19.15
2017-06-13T05:49:26.323Z,19.15
2017-06-13T05:50:13.317Z,19.15
2017-06-13T05:50:54.552Z,19.04
2017-06-13T05:51:38.046Z,19.14
2017-06-13T05:52:26.046Z,19.11
2017-06-13T05:53:06.665Z,19.08
2017-06-13T05:53:47.518Z,19.04
2017-06-13T05:54:32.827Z,19.12
2017-06-13T05:55:23.005Z,19.11
2017-06-13T05:56:07.719Z,19.09
2017-06-13T05:56:53.831Z,19
2017-06-13T05:57:35.348Z,19.07
2017-06-13T05:58:16.139Z,19.11
2017-06-13T05:58:56.731Z,18.99
2017-06-13T05:59:37.541Z,19.07
2017-06-13T06:00:18.137Z,19.04
2017-06-13T06:01:00.970Z,19.12
2017-06-13T06:01:41.908Z,19.15
2017-06-13T06:02:22.773Z,19.15
2017-06-13T06:03:03.398Z,19.15
2017-06-13T06:03:46.246Z,19.27
2017-06-13T06:04:26.832Z,19.19
2017-06-13T06:05:07.469Z,19.18
2017-06-13T06:05:48.065Z,19.15
2017-06-13T06:06:28.686Z,19.14
2017-06-13T06:07:09.274Z,19.16
2017-06-13T06:07:49.873Z,19.16
2017-06-13T06:08:30.465Z,19.18
2017-06-13T06:09:11.063Z,19.14
2017-06-13T06:09:51.648Z,19.08
2017-06-13T06:10:32.231Z,19.15
2017-06-13T06:11:12.877Z,19
2017-06-13T06:11:53.495Z,18.99
2017-06-13T06:12:34.087Z,18.96
2017-06-13T06:13:14.707Z,18.99
2017-06-13T06:13:55.293Z,18.93
2017-06-13T06:14:35.871Z,18.93
2017-06-13T06:15:16.590Z,18.92
2017-06-13T06:15:57.145Z,18.89
2017-06-13T06:16:37.983Z,18.95
2017-06-13T06:17:22.964Z,18.88
2017-06-13T06:18:08.014Z,18.84
2017-06-13T06:18:48.632Z,18.75
2017-06-13T06:19:29.214Z,18.74
2017-06-13T06:20:09.819Z,18.78
2017-06-13T06:20:50.426Z,18.78
2017-06-13T06:21:31.025Z,18.7
2017-06-13T06:22:13.443Z,18.74
2017-06-13T06:22:54.032Z,18.78
2017-06-13T06:23:34.630Z,18.78
2017-06-13T06:24:15.279Z,18.7
2017-06-13T06:24:55.840Z,18.83
2017-06-13T06:25:37.194Z,18.88
2017-06-13T06:26:17.877Z,18.89
2017-06-13T06:26:58.501Z,18.89
2017-06-13T06:27:40.747Z,18.93
2017-06-13T06:28:23.099Z,18.89
2017-06-13T06:29:09.801Z,18.96
2017-06-13T06:29:50.457Z,18.89
2017-06-13T06:30:31.099Z,18.88
2017-06-13T06:31:11.684Z,18.93
2017-06-13T06:31:52.263Z,18.88
2017-06-13T06:32:32.861Z,18.98
2017-06-13T06:33:13.481Z,19
2017-06-13T06:33:54.096Z,19.04
2017-06-13T06:34:34.725Z,18.98
2017-06-13T06:35:15.525Z,18.95
2017-06-13T06:35:56.130Z,19
2017-06-13T06:36:36.709Z,18.95
2017-06-13T06:37:19.145Z,18.93
2017-06-13T06:38:00.103Z,19.07
2017-06-13T06:38:41.543Z,18.93
2017-06-13T06:39:22.142Z,18.84
2017-06-13T06:40:02.720Z,18.99
2017-06-13T06:40:43.911Z,18.95
2017-06-13T06:41:24.719Z,18.99
2017-06-13T06:42:05.426Z,19.07
2017-06-13T06:42:46.029Z,19.04
2017-06-13T06:43:26.634Z,19.04
2017-06-13T06:44:07.228Z,18.99
2017-06-13T06:44:47.966Z,18.99
2017-06-13T06:45:28.558Z,19.09
2017-06-13T06:46:09.178Z,19.09
2017-06-13T06:46:49.789Z,19.14
2017-06-13T06:47:30.412Z,19.27
2017-06-13T06:48:11.006Z,19.16
2017-06-13T06:48:51.627Z,19.27
2017-06-13T06:49:32.241Z,19.3
2017-06-13T06:50:12.841Z,19.36
2017-06-13T06:50:53.448Z,19.39
2017-06-13T06:51:34.054Z,19.52
2017-06-13T06:52:14.646Z,19.51
2017-06-13T06:52:55.253Z,19.49
2017-06-13T06:53:35.877Z,19.47
2017-06-13T06:54:16.502Z,19.51
2017-06-13T06:54:57.099Z,19.45
2017-06-13T06:55:37.833Z,19.48
2017-06-13T06:56:18.444Z,19.52
2017-06-13T06:56:59.056Z,19.56
2017-06-13T06:57:39.657Z,19.58
2017-06-13T06:58:20.291Z,19.49
2017-06-13T06:59:00.987Z,19.55
2017-06-13T06:59:41.564Z,19.49
2017-06-13T07:00:22.202Z,19.51
2017-06-13T07:01:02.817Z,19.51
2017-06-13T07:01:43.411Z,19.48
2017-06-13T07:02:24.084Z,19.49
2017-06-13T07:03:04.674Z,19.47
2017-06-13T07:03:45.287Z,19.34
2017-06-13T07:04:25.899Z,19.39
2017-06-13T07:05:06.490Z,19.4
2017-06-13T07:05:47.067Z,19.39
2017-06-13T07:06:27.670Z,19.36
2017-06-13T07:07:08.313Z,19.36
2017-06-13T07:07:48.913Z,19.45
2017-06-13T07:08:29.502Z,19.41
2017-06-13T07:09:10.099Z,19.4
2017-06-13T07:09:50.718Z,19.39
2017-06-13T07:10:31.410Z,19.45
2017-06-13T07:11:14.543Z,19.49
2017-06-13T07:11:55.146Z,19.56
2017-06-13T07:12:35.753Z,19.56
2017-06-13T07:13:16.350Z,19.52
2017-06-13T07:13:57.113Z,19.49
2017-06-13T07:14:37.777Z,19.48
2017-06-13T07:15:18.379Z,19.44
2017-06-13T07:15:59.012Z,19.49
2017-06-13T07:16:39.594Z,19.47
2017-06-13T07:17:20.187Z,19.47
2017-06-13T07:18:00.771Z,19.58
2017-06-13T07:18:41.355Z,19.55
2017-06-13T07:19:21.951Z,19.62
2017-06-13T07:20:02.579Z,19.71
2017-06-13T07:20:43.246Z,19.69
2017-06-13T07:21:23.851Z,19.82
2017-06-13T07:22:04.438Z,19.91
2017-06-13T07:22:45.061Z,19.95
2017-06-13T07:23:25.647Z,20.09
2017-06-13T07:24:06.377Z,20.18
2017-06-13T07:24:50.673Z,20.26
2017-06-13T07:25:34.063Z,20.44
2017-06-13T07:26:14.680Z,20.55
2017-06-13T07:26:58.498Z,20.6
2017-06-13T07:27:39.118Z,20.78
2017-06-13T07:28:19.811Z,20.84
2017-06-13T07:29:13.463Z,20.82
2017-06-13T07:29:58.506Z,20.82
2017-06-13T07:30:39.105Z,20.78
2017-06-13T07:31:19.716Z,20.74
2017-06-13T07:32:00.346Z,20.69
2017-06-13T07:32:41.003Z,20.6
2017-06-13T07:33:21.606Z,20.58
2017-06-13T07:34:02.210Z,20.48
2017-06-13T07:34:42.797Z,20.47
2017-06-13T07:35:23.384Z,20.37
2017-06-13T07:36:03.996Z,20.39
2017-06-13T07:36:44.591Z,20.36
2017-06-13T07:37:25.208Z,20.31
2017-06-13T07:38:05.793Z,20.31
2017-06-13T07:38:46.386Z,20.19
2017-06-13T07:39:26.983Z,20.39
2017-06-13T07:40:07.597Z,20.44
2017-06-13T07:40:48.167Z,20.36
2017-06-13T07:41:28.755Z,20.4
2017-06-13T07:42:09.438Z,20.36
2017-06-13T07:42:50.049Z,20.29
2017-06-13T07:43:30.648Z,20.13
2017-06-13T07:44:11.234Z,20.06
2017-06-13T07:44:51.866Z,19.95
2017-06-13T07:45:32.490Z,19.96
2017-06-13T07:46:13.098Z,19.92
2017-06-13T07:46:53.690Z,19.79
2017-06-13T07:47:34.279Z,19.71
2017-06-13T07:48:14.911Z,19.64
2017-06-13T07:48:55.508Z,19.55
2017-06-13T07:49:36.106Z,19.56
2017-06-13T07:50:16.703Z,19.51
2017-06-13T07:50:57.287Z,19.49
2017-06-13T07:51:37.870Z,19.51
2017-06-13T07:52:18.455Z,19.4
2017-06-13T07:52:59.128Z,19.4
2017-06-13T07:53:39.723Z,19.37
2017-06-13T07:54:20.302Z,19.3
2017-06-13T07:55:00.893Z,19.34
2017-06-13T07:55:41.479Z,19.29
2017-06-13T07:56:22.065Z,19.33
2017-06-13T07:57:02.648Z,19.4
2017-06-13T07:57:43.235Z,19.34
2017-06-13T07:58:23.834Z,19.39
2017-06-13T07:59:04.411Z,19.44
2017-06-13T07:59:44.992Z,19.51
2017-06-13T08:00:25.579Z,19.71
2017-06-13T08:01:06.175Z,19.77
2017-06-13T08:01:46.756Z,19.95
2017-06-13T08:02:27.342Z,19.94
2017-06-13T08:03:07.932Z,20.07
2017-06-13T08:03:48.622Z,20.04
2017-06-13T08:04:29.238Z,20.06
2017-06-13T08:05:09.941Z,20.02
2017-06-13T08:05:50.568Z,19.99
2017-06-13T08:06:31.152Z,19.91
2017-06-13T08:07:11.742Z,19.89
2017-06-13T08:07:52.331Z,19.88
2017-06-13T08:08:32.952Z,19.86
2017-06-13T08:09:13.548Z,19.62
2017-06-13T08:09:54.135Z,19.59
2017-06-13T08:10:34.723Z,19.54
2017-06-13T08:11:15.307Z,19.54
2017-06-13T08:11:55.926Z,19.49
2017-06-13T08:12:36.515Z,19.48
2017-06-13T08:13:17.097Z,19.51
2017-06-13T08:13:57.687Z,19.48
2017-06-13T08:14:38.308Z,19.59
2017-06-13T08:15:18.891Z,19.52
2017-06-13T08:15:59.471Z,19.56
2017-06-13T08:16:40.059Z,19.59
2017-06-13T08:17:20.645Z,19.63
2017-06-13T08:18:01.227Z,19.63
2017-06-13T08:18:41.805Z,19.62
2017-06-13T08:19:22.384Z,19.63
2017-06-13T08:20:02.970Z,19.67
2017-06-13T08:20:43.556Z,19.77
2017-06-13T08:21:24.160Z,19.73
2017-06-13T08:22:04.752Z,19.79
2017-06-13T08:22:45.327Z,19.74
2017-06-13T08:23:25.924Z,19.67
2017-06-13T08:24:06.513Z,19.77
2017-06-13T08:24:47.106Z,19.77
2017-06-13T08:25:27.691Z,19.79
2017-06-13T08:26:08.290Z,19.7
2017-06-13T08:26:48.891Z,19.73
2017-06-13T08:27:29.471Z,19.67
2017-06-13T08:28:10.088Z,19.67
2017-06-13T08:28:50.675Z,19.67
2017-06-13T08:29:31.265Z,19.71
2017-06-13T08:30:11.858Z,19.7
2017-06-13T08:30:52.481Z,19.7
2017-06-13T08:31:33.066Z,19.67
2017-06-13T08:32:13.669Z,19.73
2017-06-13T08:32:54.281Z,19.69
2017-06-13T08:33:34.877Z,19.79
2017-06-13T08:34:15.477Z,19.7
2017-06-13T08:34:56.058Z,19.74
2017-06-13T08:35:36.646Z,19.79
2017-06-13T08:36:17.255Z,19.73
2017-06-13T08:36:57.866Z,19.82
2017-06-13T08:37:38.443Z,19.71
2017-06-13T08:38:19.041Z,19.71
2017-06-13T08:38:59.631Z,19.81
2017-06-13T08:39:40.214Z,19.76
2017-06-13T08:40:20.824Z,19.7
2017-06-13T08:41:01.423Z,19.77
2017-06-13T08:41:42.003Z,19.66
2017-06-13T08:42:22.619Z,19.67
2017-06-13T08:43:03.205Z,19.74
2017-06-13T08:43:43.804Z,19.63
2017-06-13T08:44:24.387Z,19.66
2017-06-13T08:45:04.977Z,19.66
2017-06-13T08:45:45.571Z,19.66
2017-06-13T08:46:26.152Z,19.59
2017-06-13T08:47:06.749Z,19.62